首页
METAR-TAF:

METAR-TAF

机场 :

萊切, 意大利

纬度: 40-14N, 经度: 018-09E, 海拔: 48米

当前天气观测

该预报发布于1小时和23分钟前的15:55 UTC
风速11节,风向东转东南
温度 20°C
湿度 83%
气压 1005 hPa
能见度10公里或以上
少量云层高于3000英尺

METAR: LIBN 051555Z 12011KT 9999 FEW030 20/17 Q1005 RMK OVC BKN100 VIS MIN 9999 WIND THR14 12012KT WIND THR32 12013KT BLU

时间: 19:18 (17:18 UTC)

预报

该预报发布于3小时和18分钟前的14:00 UTC
预报有效从05日的 15点(UTC)到 05日的 24点(UTC)
风速15节,风向南转南东,有时为30节阵风
能见度10公里或以上
散云层高于3000英尺
散云层高于5000英尺
成为
从 05日的 16点(UTC)到 05日的 18点(UTC)
风速7节,风向南转西南
短暂存在
从 05日的 18点(UTC)到 05日的 24点(UTC)
能見度: 7000

TAF: LIBN 051400Z 0515/0524 16015G30KT 9999 SCT030 SCT050 BECMG 0516/0518 21007KT TEMPO 0518/0524 7000 RA

超过4000个机场的气象观测和天气预报(METAR&TAF报告)。

可查询的气象台以黄色和红色小点在地图上表示。

将鼠标移到小点上方,可查看气象台名称。

然后点击查看天气观测和预报。

如需切换地图:点击带黑十字的绿色按钮放大地图;点击带横线的绿色按钮缩小地图;或者点击绿色箭头查看邻近地区的地图。


METAR-TAF: